Time;durP1;ratioP1;P1;durP2;ratioP2;P2;SDS_P1;SDS_P2;PMS_P1;PMS_P2;Temp;Humidity;BMP_temperature;BMP_pressure;BME280_temperature;BME280_humidity;BME280_pressure;Samples;Min_cycle;Max_cycle;Signal;HPM_P1;HPM_P2
2021/05/14 00:05:28;131792.00;0.44;228.42;0.00;0.00;0.62;;;;;14.50;1.00;;;;;;2266353;61;1316;-89
2021/05/14 00:10:23;599960.00;2.00;1034.15;0.00;0.00;0.62;;;;;15.10;1.00;;;;;;2266417;61;1165;-88
2021/05/14 00:12:50;176417.00;0.59;305.32;15218.00;0.05;26.99;;;;;15.50;1.00;;;;;;2260446;61;825;-87
2021/05/14 00:15:18;23612.00;0.08;41.52;0.00;0.00;0.62;;;;;15.60;1.00;;;;;;2254317;61;1103;-88
2021/05/14 00:17:44;17806.00;0.06;31.47;0.00;0.00;0.62;;;;;15.70;1.00;;;;;;2252274;61;1931;-88
2021/05/14 00:20:12;0.00;0.00;0.62;0.00;0.00;0.62;;;;;15.50;1.00;;;;;;2242035;61;1085;-88
2021/05/14 00:22:39;0.00;0.00;0.62;0.00;0.00;0.62;;;;;15.70;1.00;;;;;;2248508;61;1021;-87
2021/05/14 00:25:07;20813.00;0.07;36.68;0.00;0.00;0.62;;;;;16.10;1.00;;;;;;2244527;62;983;-87
2021/05/14 00:27:34;27112.00;0.09;47.58;0.00;0.00;0.62;;;;;15.90;1.00;;;;;;2234723;62;1027;-86
2021/05/14 00:32:29;319282.00;1.06;551.06;0.00;0.00;0.62;;;;;14.70;1.00;;;;;;2270351;61;1399;-88
2021/05/14 00:39:52;426241.00;1.42;734.92;0.00;0.00;0.62;;;;;14.50;1.00;;;;;;2269652;61;1437;-87
2021/05/14 00:42:18;198641.00;0.66;343.58;0.00;0.00;0.62;;;;;15.20;1.00;;;;;;2260329;61;970;-88
2021/05/14 00:47:18;228752.00;0.76;395.40;0.00;0.00;0.62;;;;;16.20;1.00;;;;;;2266342;61;1415;-88
2021/05/14 00:52:17;423762.00;1.41;730.66;57406.00;0.19;99.99;;;;;15.50;1.00;;;;;;2267369;61;1316;-89
2021/05/14 00:54:46;175707.00;0.59;304.10;75612.00;0.25;131.46;;;;;14.90;1.00;;;;;;2264823;61;1125;-87
2021/05/14 00:57:16;413307.00;1.38;712.68;87461.00;0.29;151.92;;;;;14.40;1.00;;;;;;2260989;61;1916;-87
2021/05/14 00:59:43;420704.00;1.40;725.40;80836.00;0.27;140.48;;;;;14.20;1.00;;;;;;2254368;61;1357;-86
2021/05/14 01:02:09;509502.00;1.70;878.18;76418.00;0.25;132.85;;;;;14.20;1.00;;;;;;2261014;61;995;-88
2021/05/14 01:04:36;619141.00;2.06;1067.28;143396.00;0.48;248.43;;;;;13.80;1.00;;;;;;2264320;61;1063;-88
2021/05/14 01:07:03;178684.00;0.60;309.22;76695.00;0.26;133.33;;;;;13.90;1.00;;;;;;2264410;61;1012;-88
2021/05/14 01:09:32;317264.00;1.06;547.60;80360.00;0.27;139.66;;;;;14.00;1.00;;;;;;2260204;61;1309;-87
2021/05/14 01:11:58;257444.00;0.86;444.75;84906.00;0.28;147.51;;;;;13.80;1.00;;;;;;2259701;61;959;-88
2021/05/14 01:14:25;278613.00;0.93;481.15;77357.00;0.26;134.47;;;;;13.80;1.00;;;;;;2256426;61;1018;-87
2021/05/14 01:16:51;273130.00;0.91;471.73;78115.00;0.26;135.78;;;;;13.40;1.00;;;;;;2244420;62;2000;-88
2021/05/14 01:19:18;252269.00;0.84;435.85;84617.00;0.28;147.01;;;;;13.30;1.00;;;;;;2244482;62;1289;-91
2021/05/14 01:21:46;327274.00;1.09;564.80;83114.00;0.28;144.42;;;;;13.50;1.00;;;;;;2244439;62;963;-88
2021/05/14 01:24:14;282208.00;0.94;487.33;85051.00;0.28;147.76;;;;;13.70;1.00;;;;;;2244300;62;986;-87
2021/05/14 01:26:41;222463.00;0.74;384.58;86400.00;0.29;150.09;;;;;13.40;1.00;;;;;;2245479;61;954;-90
2021/05/14 01:29:09;250036.00;0.83;432.01;74428.00;0.25;129.41;;;;;13.60;1.00;;;;;;2248280;61;1321;-88
2021/05/14 01:31:36;294221.00;0.98;507.99;77688.00;0.26;135.04;;;;;13.50;1.00;;;;;;2244383;61;974;-88
2021/05/14 01:34:04;315855.00;1.05;545.17;84684.00;0.28;147.13;;;;;13.60;1.00;;;;;;2244395;61;1117;-89
2021/05/14 01:36:31;422236.00;1.41;728.04;80120.00;0.27;139.24;;;;;13.40;1.00;;;;;;2244307;61;1910;-89
2021/05/14 01:39:06;304453.00;1.01;525.57;79790.00;0.27;138.67;;;;;13.30;1.00;;;;;;2237793;61;1405;-89
2021/05/14 01:41:33;254384.00;0.85;439.49;78479.00;0.26;136.41;;;;;13.60;1.00;;;;;;2244413;61;931;-89
2021/05/14 01:43:59;431845.00;1.44;744.56;77357.00;0.26;134.47;;;;;13.70;1.00;;;;;;2238546;61;1045;-88
2021/05/14 01:46:25;257236.00;0.86;444.40;87037.00;0.29;151.19;;;;;13.80;1.00;;;;;;2250705;61;1072;-89
2021/05/14 01:48:53;332567.00;1.11;573.90;77856.00;0.26;135.33;;;;;13.80;1.00;;;;;;2256913;61;1428;-87
2021/05/14 01:51:22;303746.00;1.01;524.36;80790.00;0.27;140.40;;;;;13.30;1.00;;;;;;2256801;61;976;-89
2021/05/14 01:53:50;458465.00;1.53;790.34;89241.00;0.30;155.00;;;;;13.30;1.00;;;;;;2256203;61;999;-90
2021/05/14 01:58:48;679330.00;2.26;1171.41;82944.00;0.28;144.12;;;;;13.40;1.00;;;;;;2266597;61;1408;-89
2021/05/14 02:01:14;369042.00;1.23;636.59;78707.00;0.26;136.80;;;;;13.70;1.00;;;;;;2264216;61;979;-90
2021/05/14 02:03:41;745775.00;2.49;1286.71;75294.00;0.25;130.91;;;;;13.90;1.00;;;;;;2264676;61;1010;-91
2021/05/14 02:06:07;459036.00;1.53;791.33;81757.00;0.27;142.07;;;;;13.70;1.00;;;;;;2264688;61;1071;-90
2021/05/14 02:08:35;380555.00;1.27;656.38;84113.00;0.28;146.14;;;;;13.80;1.00;;;;;;2264542;61;1319;-89
2021/05/14 02:11:03;537554.00;1.79;926.51;79975.00;0.27;138.99;;;;;13.60;1.00;;;;;;2256104;61;965;-88
2021/05/14 02:15:58;466349.00;1.55;803.91;16396.00;0.05;29.03;;;;;14.30;1.00;;;;;;2266655;61;1315;-89
2021/05/14 02:18:24;517678.00;1.73;892.27;141581.00;0.47;245.30;;;;;14.40;1.00;;;;;;2264761;61;2005;-88
2021/05/14 02:20:51;505957.00;1.69;872.08;83311.00;0.28;144.76;;;;;13.70;1.00;;;;;;2265267;61;463;-88
2021/05/14 02:23:19;492213.00;1.64;848.42;81183.00;0.27;141.08;;;;;12.80;1.00;;;;;;2257855;61;1092;-85
2021/05/14 02:25:45;295127.00;0.98;509.54;0.00;0.00;0.62;;;;;12.40;1.00;;;;;;2264696;61;907;-86
2021/05/14 02:28:12;388594.00;1.30;670.20;0.00;0.00;0.62;;;;;12.10;1.00;;;;;;2257556;61;1404;-87
2021/05/14 02:30:39;275118.00;0.92;475.14;0.00;0.00;0.62;;;;;11.80;1.00;;;;;;2264697;61;1016;-87
2021/05/14 02:35:34;685554.00;2.29;1182.20;0.00;0.00;0.62;;;;;11.00;1.00;;;;;;2266150;61;1398;-86
2021/05/14 02:38:00;604202.00;2.01;1041.48;0.00;0.00;0.62;;;;;10.90;1.00;;;;;;2264416;61;1915;-87
2021/05/14 02:45:24;697317.00;2.32;1202.59;0.00;0.00;0.62;;;;;11.50;1.00;;;;;;2262256;61;1243;-87
2021/05/14 02:47:50;621130.00;2.07;1070.72;20640.00;0.07;36.38;;;;;11.50;1.00;;;;;;2255903;61;1508;-87
2021/05/14 02:50:17;227456.00;0.76;393.17;0.00;0.00;0.62;;;;;11.80;1.00;;;;;;2256023;61;1002;-87
2021/05/14 02:52:45;201790.00;0.67;349.00;0.00;0.00;0.62;;;;;11.80;1.00;;;;;;2256120;61;1051;-89
2021/05/14 02:57:43;666540.00;2.22;1149.26;0.00;0.00;0.62;;;;;12.10;1.00;;;;;;2256682;61;1966;-87
2021/05/14 03:00:11;226621.00;0.76;391.74;0.00;0.00;0.62;;;;;12.30;1.00;;;;;;2248045;61;1440;-88
2021/05/14 03:02:38;99390.00;0.33;172.52;0.00;0.00;0.62;;;;;12.20;1.00;;;;;;2244725;61;1067;-86
2021/05/14 03:07:32;831403.00;2.77;1435.95;0.00;0.00;0.62;;;;;11.70;1.00;;;;;;2266609;61;1312;-88
2021/05/14 03:10:00;425205.00;1.42;733.14;0.00;0.00;0.62;;;;;11.90;1.00;;;;;;2260523;61;1301;-86
2021/05/14 03:12:27;308451.00;1.03;532.45;0.00;0.00;0.62;;;;;12.70;1.00;;;;;;2257498;61;1009;-87
2021/05/14 03:14:53;248205.00;0.83;428.86;0.00;0.00;0.62;;;;;12.70;1.00;;;;;;2264497;61;985;-88
2021/05/14 03:17:20;320880.00;1.07;553.81;32475.00;0.11;56.87;;;;;12.80;1.00;;;;;;2252017;61;1916;-87
2021/05/14 03:19:46;315183.00;1.05;544.02;26893.00;0.09;47.20;;;;;12.60;1.00;;;;;;2245267;61;1271;-88
2021/05/14 03:24:41;1140376.00;3.80;1982.78;0.00;0.00;0.62;;;;;12.70;1.00;;;;;;2265987;61;1386;-89
2021/05/14 03:27:08;337815.00;1.13;582.92;0.00;0.00;0.62;;;;;12.20;1.00;;;;;;2251880;61;947;-86
2021/05/14 03:32:03;1010678.00;3.37;1751.39;0.00;0.00;0.62;;;;;12.70;1.00;;;;;;2269278;61;1428;-92
2021/05/14 03:34:52;382685.00;1.28;660.04;0.00;0.00;0.62;;;;;13.00;1.00;;;;;;2255805;61;932;-89
2021/05/14 03:37:34;131515.00;0.44;227.94;0.00;0.00;0.62;;;;;12.60;1.00;;;;;;2251726;61;1924;-89
2021/05/14 03:40:20;281812.00;0.94;486.65;0.00;0.00;0.62;;;;;12.40;1.00;;;;;;2245226;61;1367;-88
2021/05/14 03:42:48;309524.00;1.03;534.29;0.00;0.00;0.62;;;;;12.20;1.00;;;;;;2251829;61;1058;-88
2021/05/14 03:45:16;377703.00;1.26;651.48;84690.00;0.28;147.14;;;;;11.70;1.00;;;;;;2251836;61;1032;-88
2021/05/14 03:47:43;298012.00;0.99;514.50;74947.00;0.25;130.31;;;;;11.70;1.00;;;;;;2252045;61;1031;-88
2021/05/14 03:50:10;331584.00;1.11;572.21;0.00;0.00;0.62;;;;;11.50;1.00;;;;;;2240538;62;1289;-88
2021/05/14 03:52:37;333046.00;1.11;574.72;0.00;0.00;0.62;;;;;11.40;1.00;;;;;;2234054;62;1006;-89
2021/05/14 03:55:05;337158.00;1.12;581.79;0.00;0.00;0.62;;;;;11.30;1.00;;;;;;2245218;61;990;-89
2021/05/14 03:57:31;372450.00;1.24;642.45;0.00;0.00;0.62;;;;;11.00;1.00;;;;;;2249100;61;2001;-88
2021/05/14 04:00:07;374153.00;1.25;645.38;45294.00;0.15;79.05;;;;;11.30;1.00;;;;;;2248390;61;1313;-87
2021/05/14 04:02:37;244360.00;0.81;422.25;0.00;0.00;0.62;;;;;12.40;1.00;;;;;;2248552;61;1050;-90
2021/05/14 04:05:07;245346.00;0.82;423.95;0.00;0.00;0.62;;;;;13.10;1.00;;;;;;2244430;61;961;-91
2021/05/14 04:07:34;616560.00;2.06;1062.82;117634.00;0.39;204.00;;;;;12.90;1.00;;;;;;2238391;61;952;-88
2021/05/14 04:10:11;263936.00;0.88;455.92;0.00;0.00;0.62;;;;;12.50;1.00;;;;;;2236538;62;1434;-89
2021/05/14 04:20:29;444852.00;1.48;766.93;94216.00;0.31;163.59;;;;;11.20;1.00;;;;;;2232541;62;1351;-88
2021/05/14 04:22:58;307439.00;1.02;530.71;0.00;0.00;0.62;;;;;11.20;1.00;;;;;;2222643;62;950;-91
2021/05/14 04:25:30;119621416.00;398.74;69338976.00;0.00;0.00;0.62;;;;;11.00;1.00;;;;;;2221934;62;980;-88
2021/05/14 04:28:24;227064.00;0.76;392.50;0.00;0.00;0.62;;;;;11.50;1.00;;;;;;2228661;62;1012;-88
2021/05/14 04:54:15;262711.00;0.88;453.81;0.00;0.00;0.62;;;;;12.40;1.00;;;;;;2207457;62;1065;-89
2021/05/14 04:57:28;117053.00;0.39;203.00;0.00;0.00;0.62;;;;;12.40;1.00;;;;;;2205382;62;2007;-88
2021/05/14 05:36:12;128230.00;0.43;222.28;0.00;0.00;0.62;;;;;15.10;1.00;;;;;;2184469;63;982;-89
2021/05/14 05:38:38;69417.00;0.23;120.75;0.00;0.00;0.62;;;;;16.50;1.00;;;;;;2188338;63;2019;-88
2021/05/14 05:41:05;73764.00;0.25;128.26;0.00;0.00;0.62;;;;;17.40;1.00;;;;;;2182384;63;1185;-87
2021/05/14 05:43:38;59693.00;0.20;103.95;0.00;0.00;0.62;;;;;18.40;1.00;;;;;;2187297;63;1200;-91
2021/05/14 05:46:11;264746.00;0.88;457.31;0.00;0.00;0.62;;;;;19.60;1.00;;;;;;2190021;63;1036;-90
2021/05/14 05:51:23;14187.00;0.05;25.20;0.00;0.00;0.62;;;;;22.50;1.00;;;;;;2190017;63;1062;-90
2021/05/14 05:53:50;458868.00;1.53;791.04;112075.00;0.37;194.41;;;;;23.40;1.00;;;;;;2189996;63;1061;-90
2021/05/14 05:56:24;315937.00;1.05;545.31;70720.00;0.24;123.00;;;;;22.50;1.00;;;;;;2192391;63;979;-89
2021/05/14 05:59:18;;;;;;;;;;;;;;;;;;;;;
2021/05/14 06:04:49;210270.00;0.70;363.60;77348.00;0.26;134.46;;;;;22.40;1.00;;;;;;2210302;62;1305;-90
2021/05/14 06:07:17;616910.00;2.06;1063.43;86813.00;0.29;150.80;;;;;23.00;1.00;;;;;;2221757;62;954;-89
2021/05/14 06:09:44;548471.00;1.83;945.32;77421.00;0.26;134.58;;;;;24.50;1.00;;;;;;2227848;61;1351;-89
2021/05/14 06:12:11;781089.00;2.60;1348.16;82369.00;0.27;143.13;;;;;24.50;1.00;;;;;;2246440;61;1009;-91
2021/05/14 06:14:43;766612.00;2.56;1322.96;101917.00;0.34;176.88;;;;;24.10;1.00;;;;;;2240086;62;949;-89
2021/05/14 06:17:13;541188.00;1.80;932.77;0.00;0.00;0.62;;;;;24.80;1.00;;;;;;2228210;62;1993;-89
2021/05/14 06:19:53;517026.00;1.72;891.14;82458.00;0.27;143.28;;;;;24.60;1.00;;;;;;2220582;62;1412;-90
2021/05/14 06:22:22;339026.00;1.13;585.00;0.00;0.00;0.62;;;;;25.10;1.00;;;;;;2220605;62;1160;-90
2021/05/14 06:24:49;640042.00;2.13;1103.41;79269.00;0.26;137.77;;;;;24.40;1.00;;;;;;2220598;62;982;-90
2021/05/14 06:27:15;591037.00;1.97;1018.75;75.00;0.00;0.75;;;;;25.20;1.00;;;;;;2212857;62;1047;-88
2021/05/14 06:29:45;489346.00;1.63;843.48;0.00;0.00;0.62;;;;;24.70;1.00;;;;;;2216563;62;1387;-90
2021/05/14 06:32:25;225941.00;0.75;390.57;0.00;0.00;0.62;;;;;23.80;1.00;;;;;;2224514;62;1126;-89
2021/05/14 06:34:58;195979.00;0.65;339.00;17250.00;0.06;30.51;;;;;24.60;1.00;;;;;;2234930;62;1695;-89
2021/05/14 06:37:31;183832.00;0.61;318.09;0.00;0.00;0.62;;;;;24.40;1.00;;;;;;2236048;62;2006;-88
2021/05/14 06:40:00;41205.00;0.14;71.97;0.00;0.00;0.62;;;;;24.20;1.00;;;;;;2236046;62;1605;-89
2021/05/14 06:42:29;72968.00;0.24;126.89;0.00;0.00;0.62;;;;;24.80;1.00;;;;;;2237225;62;1426;-89
2021/05/14 06:44:58;16016.00;0.05;28.37;0.00;0.00;0.62;;;;;25.10;1.00;;;;;;2244209;61;1000;-89
2021/05/14 06:47:26;272578.00;0.91;470.78;91162.00;0.30;158.31;;;;;25.90;1.00;;;;;;2251951;61;1085;-88
2021/05/14 06:49:54;219643.00;0.73;379.73;35104.00;0.12;61.42;;;;;26.80;1.00;;;;;;2251808;61;1400;-90
2021/05/14 06:52:30;191999.00;0.64;332.15;48622.00;0.16;84.80;;;;;27.30;1.00;;;;;;2248593;61;990;-88
2021/05/14 06:55:01;30506.00;0.10;53.46;0.00;0.00;0.62;;;;;27.90;1.00;;;;;;2255494;61;1609;-89
2021/05/14 06:57:28;13121.00;0.04;23.36;0.00;0.00;0.62;;;;;27.60;1.00;;;;;;2264096;61;1926;-89
2021/05/14 07:00:27;300821.00;1.00;519.33;0.00;0.00;0.62;;;;;27.60;1.00;;;;;;2264197;61;1272;-90
2021/05/14 07:03:00;328107.00;1.09;566.23;0.00;0.00;0.62;;;;;27.60;1.00;;;;;;2251638;61;1151;-89
2021/05/14 07:09:12;;;;;;;;;;;;;;;;;;;;;
2021/05/14 07:18:18;140192.00;0.47;242.90;0.00;0.00;0.62;;;;;27.10;1.00;;;;;;2236011;62;1923;-89
2021/05/14 07:39:06;18777.00;0.06;33.15;0.00;0.00;0.62;;;;;29.20;1.00;;;;;;2210588;62;2057;-89
2021/05/14 07:41:32;302074.00;1.01;521.49;49080.00;0.16;85.60;;;;;29.30;1.00;;;;;;2221246;62;1066;-89
2021/05/14 07:44:02;271907.00;0.91;469.62;1056.00;0.00;2.45;;;;;28.70;1.00;;;;;;2220952;62;1515;-88
2021/05/14 07:47:03;123612.00;0.41;214.31;0.00;0.00;0.62;;;;;28.60;1.00;;;;;;2221239;62;1705;-90
2021/05/14 07:55:16;1340116.00;4.47;2345.71;0.00;0.00;0.62;;;;;29.50;1.00;;;;;;2270381;61;1419;-89
2021/05/14 07:57:53;372849.00;1.24;643.13;0.00;0.00;0.62;;;;;28.90;1.00;;;;;;2268880;61;1914;-88
2021/05/14 08:00:44;;;;;;;;;;;;;;;;;;;;;
2021/05/14 08:03:40;43136.00;0.14;75.31;0.00;0.00;0.62;;;;;28.30;1.00;;;;;;2269012;61;890;-87
2021/05/14 08:06:34;206796.00;0.69;357.62;0.00;0.00;0.62;;;;;28.20;1.00;;;;;;2265187;61;942;-87
2021/05/14 08:09:06;409264.00;1.36;705.73;50644.00;0.17;88.30;;;;;28.10;1.00;;;;;;2264861;61;1404;-88
2021/05/14 08:11:38;47001.00;0.16;82.00;0.00;0.00;0.62;;;;;27.40;1.00;;;;;;2256436;61;1097;-88
2021/05/14 08:14:23;248158.00;0.83;428.78;0.00;0.00;0.62;;;;;26.60;1.00;;;;;;2256428;61;1225;-88
2021/05/14 08:17:02;;;;;;;;;;;;;;;;;;;;;
2021/05/14 08:22:55;413482.00;1.38;712.98;56345.00;0.19;98.16;;;;;27.20;1.00;;;;;;2251936;61;1132;-90
2021/05/14 08:28:39;336429.00;1.12;580.54;0.00;0.00;0.62;;;;;27.10;1.00;;;;;;2244560;61;1427;-89
2021/05/14 08:31:32;94937.00;0.32;164.83;0.00;0.00;0.62;;;;;27.40;1.00;;;;;;2241782;61;1030;-89
2021/05/14 08:33:59;432624.00;1.44;745.90;70539.00;0.24;122.69;;;;;26.40;1.00;;;;;;2236331;62;1134;-88
2021/05/14 08:36:28;435635.00;1.45;751.08;76128.00;0.25;132.35;;;;;26.00;1.00;;;;;;2236523;62;1121;-89
2021/05/14 08:38:55;686263.00;2.29;1183.43;76507.00;0.26;133.00;;;;;25.30;1.00;;;;;;2236562;62;1925;-89
2021/05/14 08:41:51;;;;;;;;;;;;;;;;;;;;;
2021/05/14 08:44:35;222262.00;0.74;384.24;0.00;0.00;0.62;;;;;25.00;1.00;;;;;;2248302;61;1067;-90
2021/05/14 08:48:01;60841.00;0.20;105.93;0.00;0.00;0.62;;;;;24.70;1.00;;;;;;2248352;61;915;-88
2021/05/14 08:50:38;466453.00;1.55;804.09;0.00;0.00;0.62;;;;;26.00;1.00;;;;;;2220671;62;1548;-88
2021/05/14 08:53:20;95767.00;0.32;166.26;0.00;0.00;0.62;;;;;26.70;1.00;;;;;;2224053;62;1032;-90
2021/05/14 08:56:15;366206.00;1.22;631.72;75716.00;0.25;131.64;;;;;25.30;1.00;;;;;;2220801;62;1543;-90
2021/05/14 08:59:02;348842.00;1.16;601.87;0.00;0.00;0.62;;;;;24.90;1.00;;;;;;2222743;62;1998;-89
2021/05/14 09:01:32;151952.00;0.51;263.17;0.00;0.00;0.62;;;;;23.80;1.00;;;;;;2228518;62;1175;-87
2021/05/14 09:04:40;188769.00;0.63;326.59;0.00;0.00;0.62;;;;;24.30;1.00;;;;;;2228614;62;1071;-91
2021/05/14 09:07:49;24065.00;0.08;42.31;0.00;0.00;0.62;;;;;24.20;1.00;;;;;;2216526;62;1798;-89
2021/05/14 09:10:47;304936.00;1.02;526.40;23090.00;0.08;40.62;;;;;25.10;1.00;;;;;;2212292;62;1354;-89
2021/05/14 09:13:40;738759.00;2.46;1274.52;78192.00;0.26;135.91;;;;;24.90;1.00;;;;;;2220518;62;1652;-88
2021/05/14 09:16:23;445662.00;1.49;768.32;84063.00;0.28;146.06;;;;;24.20;1.00;;;;;;2240283;62;1201;-89
2021/05/14 09:19:31;471271.00;1.57;812.38;105097.00;0.35;182.37;;;;;23.50;1.00;;;;;;2233538;62;2012;-89
2021/05/14 09:22:37;178955.00;0.60;309.69;0.00;0.00;0.62;;;;;23.00;1.00;;;;;;2236450;62;1606;-90
2021/05/14 09:25:11;222534.00;0.74;384.70;0.00;0.00;0.62;;;;;23.20;1.00;;;;;;2240091;62;1118;-90
2021/05/14 09:27:45;152147.00;0.51;263.51;0.00;0.00;0.62;;;;;23.30;1.00;;;;;;2241855;61;1647;-88
2021/05/14 09:32:44;331540.00;1.11;572.13;0.00;0.00;0.62;;;;;22.70;1.00;;;;;;2269907;61;1418;-90
2021/05/14 09:35:11;288519.00;0.96;498.18;0.00;0.00;0.62;;;;;23.10;1.00;;;;;;2256814;61;851;-89
2021/05/14 09:45:20;30199.00;0.10;52.93;0.00;0.00;0.62;;;;;23.20;1.00;;;;;;2273857;61;1237;-88
2021/05/14 09:47:59;10051.00;0.03;18.04;0.00;0.00;0.62;;;;;22.30;1.00;;;;;;2272691;61;1005;-89
2021/05/14 09:53:10;780533.00;2.60;1347.19;0.00;0.00;0.62;;;;;21.00;1.00;;;;;;2270287;61;1327;-90
2021/05/14 10:00:32;927013.00;3.09;1603.61;78433.00;0.26;136.33;;;;;23.10;1.00;;;;;;2266096;61;1361;-90
2021/05/14 10:10:34;1031405.00;3.44;1788.17;61762.00;0.21;107.52;;;;;23.50;1.00;;;;;;2269151;61;1277;-92
2021/05/14 10:20:38;391935.00;1.31;675.94;79332.00;0.26;137.88;;;;;21.80;1.00;;;;;;2269643;61;1292;-87
2021/05/14 10:23:06;468529.00;1.56;807.66;105461.00;0.35;183.00;;;;;20.90;1.00;;;;;;2260599;61;1112;-89
2021/05/14 10:25:48;240442.00;0.80;415.51;79610.00;0.27;138.36;;;;;20.90;1.00;;;;;;2247929;61;1088;-88
2021/05/14 10:28:18;183226.00;0.61;317.04;0.00;0.00;0.62;;;;;21.40;1.00;;;;;;2247820;61;1043;-86
2021/05/14 10:31:24;345872.00;1.15;596.77;0.00;0.00;0.62;;;;;22.10;1.00;;;;;;2244044;61;1399;-89
2021/05/14 10:33:54;43322.00;0.14;75.64;0.00;0.00;0.62;;;;;22.50;1.00;;;;;;2239940;62;1178;-88
2021/05/14 10:36:43;78699.00;0.26;136.79;0.00;0.00;0.62;;;;;23.10;1.00;;;;;;2236178;62;1003;-88
2021/05/14 10:44:15;243171.00;0.81;420.21;0.00;0.00;0.62;;;;;23.60;1.00;;;;;;2266219;61;1386;-90
2021/05/14 10:46:42;42037.00;0.14;73.41;0.00;0.00;0.62;;;;;23.70;1.00;;;;;;2260748;61;1053;-89
2021/05/14 10:49:12;352007.00;1.17;607.31;80862.00;0.27;140.53;;;;;23.60;1.00;;;;;;2260817;61;1435;-90
2021/05/14 10:52:01;172201.00;0.57;298.06;0.00;0.00;0.62;;;;;23.40;1.00;;;;;;2264418;61;1030;-90
2021/05/14 10:54:55;0.00;0.00;0.62;0.00;0.00;0.62;;;;;23.60;1.00;;;;;;2260711;61;985;-90
2021/05/14 10:57:47;205831.00;0.69;355.96;11927.00;0.04;21.29;;;;;23.60;1.00;;;;;;2239753;61;2005;-91
2021/05/14 11:20:41;688251.00;2.29;1186.87;0.00;0.00;0.62;;;;;23.20;1.00;;;;;;2268646;61;1269;-89
2021/05/14 11:23:33;72659.00;0.24;126.35;0.00;0.00;0.62;;;;;23.00;1.00;;;;;;2261318;61;987;-90
2021/05/14 11:26:01;20294.00;0.07;35.78;0.00;0.00;0.62;;;;;22.70;1.00;;;;;;2261276;61;939;-90
2021/05/14 11:28:42;68790.00;0.23;119.67;0.00;0.00;0.62;;;;;23.00;1.00;;;;;;2258123;61;993;-90
2021/05/14 11:31:17;233382.00;0.78;403.37;76462.00;0.25;132.93;;;;;22.30;1.00;;;;;;2259803;61;955;-89
2021/05/14 11:33:45;182497.00;0.61;315.79;72723.00;0.24;126.47;;;;;21.50;1.00;;;;;;2253296;61;1009;-89
2021/05/14 11:36:13;0.00;0.00;0.62;0.00;0.00;0.62;;;;;21.00;1.00;;;;;;2259961;61;1010;-88
2021/05/14 11:38:45;0.00;0.00;0.62;0.00;0.00;0.62;;;;;21.40;1.00;;;;;;2256482;61;2001;-89
2021/05/14 11:58:39;970138.00;3.23;1679.65;0.00;0.00;0.62;;;;;22.80;1.00;;;;;;828552;40;2330;-93
2021/05/14 12:01:07;1396971.00;4.66;2450.71;0.00;0.00;0.62;;;;;23.30;1.00;;;;;;2261484;61;1224;-88
2021/05/14 12:41:03;222403.00;0.74;384.48;0.00;0.00;0.62;;;;;24.10;1.00;;;;;;2269930;61;1462;-89
2021/05/14 12:46:05;163344.00;0.54;282.80;0.00;0.00;0.62;;;;;23.10;1.00;;;;;;2270069;61;1446;-90
2021/05/14 12:48:31;0.00;0.00;0.62;0.00;0.00;0.62;;;;;23.30;1.00;;;;;;2261798;61;1085;-89
2021/05/14 12:50:58;19341.00;0.06;34.13;0.00;0.00;0.62;;;;;23.30;1.00;;;;;;2258569;61;1403;-89
2021/05/14 12:53:24;158711.00;0.53;274.82;0.00;0.00;0.62;;;;;23.10;1.00;;;;;;2268869;61;912;-89
2021/05/14 12:55:51;0.00;0.00;0.62;0.00;0.00;0.62;;;;;23.00;1.00;;;;;;2261880;61;1039;-90
2021/05/14 12:58:18;0.00;0.00;0.62;0.00;0.00;0.62;;;;;23.00;1.00;;;;;;2261872;61;2001;-88
2021/05/14 13:00:45;26653.00;0.09;46.79;0.00;0.00;0.62;;;;;22.90;1.00;;;;;;2261867;61;1408;-89
2021/05/14 13:03:12;44082.00;0.15;76.95;0.00;0.00;0.62;;;;;23.30;1.00;;;;;;2268793;61;1745;-88
2021/05/14 13:05:40;99655.00;0.33;172.98;0.00;0.00;0.62;;;;;23.40;1.00;;;;;;2260306;61;952;-90
2021/05/14 13:08:08;0.00;0.00;0.62;0.00;0.00;0.62;;;;;24.00;1.00;;;;;;2260353;61;1021;-91
2021/05/14 13:10:36;0.00;0.00;0.62;0.00;0.00;0.62;;;;;23.90;1.00;;;;;;2253641;61;1421;-88
2021/05/14 13:13:03;122904.00;0.41;213.09;0.00;0.00;0.62;;;;;24.10;1.00;;;;;;2252307;61;937;-89
2021/05/14 13:15:30;205326.00;0.68;355.09;0.00;0.00;0.62;;;;;24.50;1.00;;;;;;2244350;61;1046;-89
2021/05/14 13:17:57;142158.00;0.47;246.29;0.00;0.00;0.62;;;;;25.00;1.00;;;;;;2244405;61;2010;-88
2021/05/14 13:20:23;87132.00;0.29;151.36;0.00;0.00;0.62;;;;;24.70;1.00;;;;;;2237658;61;1471;-89
2021/05/14 13:22:50;103994.00;0.35;180.47;0.00;0.00;0.62;;;;;24.10;1.00;;;;;;2245624;61;961;-89
2021/05/14 13:25:16;202091.00;0.67;349.52;0.00;0.00;0.62;;;;;24.20;1.00;;;;;;2249036;61;930;-87
2021/05/14 13:27:43;107636.00;0.36;186.75;0.00;0.00;0.62;;;;;24.20;1.00;;;;;;2248325;61;969;-89
2021/05/14 13:30:12;160639.00;0.54;278.14;0.00;0.00;0.62;;;;;24.10;1.00;;;;;;2249114;61;1389;-90
2021/05/14 13:32:39;181198.00;0.60;313.55;0.00;0.00;0.62;;;;;24.00;1.00;;;;;;2248258;61;1039;-89
2021/05/14 13:35:07;281616.00;0.94;486.32;0.00;0.00;0.62;;;;;23.50;1.00;;;;;;2241720;61;1072;-89
2021/05/14 13:37:34;389755.00;1.30;672.19;0.00;0.00;0.62;;;;;23.40;1.00;;;;;;2244219;61;1928;-89
2021/05/14 13:42:34;876469.00;2.92;1514.83;31468.00;0.10;55.12;;;;;23.80;1.00;;;;;;2270180;61;1330;-88
2021/05/14 13:45:00;471755.00;1.57;813.21;93094.00;0.31;161.65;;;;;23.90;1.00;;;;;;2268801;61;997;-88
2021/05/14 13:47:28;115237.00;0.38;199.87;0.00;0.00;0.62;;;;;23.50;1.00;;;;;;2268794;61;1027;-88
2021/05/14 13:49:55;0.00;0.00;0.62;0.00;0.00;0.62;;;;;23.30;1.00;;;;;;2258319;61;1463;-88
2021/05/14 13:52:23;135130.00;0.45;234.17;22783.00;0.08;40.09;;;;;23.30;1.00;;;;;;2261681;61;1251;-88
2021/05/14 13:54:49;0.00;0.00;0.62;0.00;0.00;0.62;;;;;23.70;1.00;;;;;;2256225;61;1093;-89
2021/05/14 13:57:16;111207.00;0.37;192.91;0.00;0.00;0.62;;;;;23.80;1.00;;;;;;2256117;61;1000;-89
2021/05/14 13:59:42;0.00;0.00;0.62;0.00;0.00;0.62;;;;;23.90;1.00;;;;;;2256054;61;1453;-89
2021/05/14 14:02:10;133626.00;0.45;231.58;0.00;0.00;0.62;;;;;24.00;1.00;;;;;;2245895;61;1178;-89
2021/05/14 14:04:36;17318.00;0.06;30.63;0.00;0.00;0.62;;;;;24.30;1.00;;;;;;2245884;61;1126;-89
2021/05/14 14:07:04;10315.00;0.03;18.49;0.00;0.00;0.62;;;;;23.90;1.00;;;;;;2246318;61;1013;-90
2021/05/14 14:09:30;97590.00;0.33;169.41;31131.00;0.10;54.54;;;;;23.70;1.00;;;;;;2256192;61;1373;-90
2021/05/14 14:12:02;0.00;0.00;0.62;0.00;0.00;0.62;;;;;23.90;1.00;;;;;;2257092;61;1005;-88
2021/05/14 14:14:29;87771.00;0.29;152.46;19959.00;0.07;35.20;;;;;23.90;1.00;;;;;;2251596;61;969;-88
2021/05/14 14:16:55;0.00;0.00;0.62;0.00;0.00;0.62;;;;;23.40;1.00;;;;;;2248319;61;1105;-88
2021/05/14 14:19:22;64108.00;0.21;111.58;0.00;0.00;0.62;;;;;23.00;1.00;;;;;;2251985;61;1932;-89
2021/05/14 14:21:48;36861.00;0.12;64.46;0.00;0.00;0.62;;;;;22.40;1.00;;;;;;2252184;61;1035;-88
2021/05/14 14:24:16;373.00;0.00;1.27;0.00;0.00;0.62;;;;;22.00;1.00;;;;;;2244135;62;1033;-87
2021/05/14 14:26:42;0.00;0.00;0.62;0.00;0.00;0.62;;;;;21.80;1.00;;;;;;2244072;62;1724;-86
2021/05/14 14:29:09;81079.00;0.27;140.90;0.00;0.00;0.62;;;;;21.40;1.00;;;;;;2243793;62;1681;-87
2021/05/14 14:31:36;31657.00;0.11;55.45;0.00;0.00;0.62;;;;;21.50;1.00;;;;;;2245005;61;1069;-87
2021/05/14 14:34:03;61170.00;0.20;106.50;0.00;0.00;0.62;;;;;21.50;1.00;;;;;;2252309;61;1711;-86
2021/05/14 14:36:30;114983.00;0.38;199.43;0.00;0.00;0.62;;;;;21.60;1.00;;;;;;2259979;61;1081;-89
2021/05/14 14:38:56;7119.00;0.02;12.96;0.00;0.00;0.62;;;;;21.50;1.00;;;;;;2259703;61;1915;-88
2021/05/14 14:41:24;8624.00;0.03;15.57;0.00;0.00;0.62;;;;;21.60;1.00;;;;;;2260746;61;1112;-85
2021/05/14 14:43:51;0.00;0.00;0.62;0.00;0.00;0.62;;;;;21.40;1.00;;;;;;2268358;61;1204;-88
2021/05/14 14:53:56;106856.00;0.36;185.40;0.00;0.00;0.62;;;;;22.10;1.00;;;;;;2269491;61;1231;-87
2021/05/14 14:56:24;565.00;0.00;1.60;0.00;0.00;0.62;;;;;21.60;1.00;;;;;;2258004;61;1078;-88
2021/05/14 14:58:51;0.00;0.00;0.62;0.00;0.00;0.62;;;;;21.70;1.00;;;;;;2268477;61;1992;-88
2021/05/14 15:01:17;344064.00;1.15;593.66;38086.00;0.13;66.58;;;;;21.70;1.00;;;;;;2261329;61;1103;-87